Time;durP1;ratioP1;P1;durP2;ratioP2;P2;SDS_P1;SDS_P2;PMS_P1;PMS_P2;Temp;Humidity;BMP_temperature;BMP_pressure;BME280_temperature;BME280_humidity;BME280_pressure;Samples;Min_cycle;Max_cycle;Signal;HPM_P1;HPM_P2
2022/11/24 00:01:33;;;;;;;2.42;0.60;;;18.80;99.90;;;;;;7406358;19;19918;-41
2022/11/24 00:04:06;;;;;;;1.85;0.60;;;18.80;99.90;;;;;;7406482;19;20348;-42
2022/11/24 00:06:37;;;;;;;2.83;1.10;;;18.80;99.90;;;;;;7406588;19;20427;-42
2022/11/24 00:09:07;;;;;;;1.88;0.68;;;18.70;99.90;;;;;;7405741;19;20292;-42
2022/11/24 00:11:37;;;;;;;2.70;0.75;;;18.70;99.90;;;;;;7406915;19;19978;-42
2022/11/24 00:14:08;;;;;;;1.58;0.40;;;18.70;99.90;;;;;;7406143;19;19922;-41
2022/11/24 00:16:38;;;;;;;1.83;0.20;;;18.70;99.90;;;;;;7408891;19;20256;-42
2022/11/24 00:19:11;;;;;;;2.67;0.88;;;18.70;99.90;;;;;;7405418;19;19923;-42
2022/11/24 00:21:40;;;;;;;1.90;0.70;;;18.70;99.90;;;;;;7408103;19;19918;-42
2022/11/24 00:24:09;;;;;;;1.95;0.60;;;18.60;99.90;;;;;;7407846;19;20439;-42
2022/11/24 00:26:38;;;;;;;2.58;0.22;;;18.60;99.90;;;;;;7406609;19;19943;-42
2022/11/24 00:29:09;;;;;;;1.95;0.80;;;18.60;99.90;;;;;;7407182;19;19922;-42
2022/11/24 00:31:40;;;;;;;1.92;0.60;;;18.60;99.90;;;;;;7405742;19;19910;-41
2022/11/24 00:34:14;;;;;;;1.80;0.85;;;18.60;99.90;;;;;;7405757;19;19918;-41
2022/11/24 00:36:43;;;;;;;1.45;0.40;;;18.60;99.90;;;;;;7405295;19;20272;-43
2022/11/24 00:39:15;;;;;;;1.88;0.65;;;18.60;99.90;;;;;;7405438;19;19925;-40
2022/11/24 00:41:44;;;;;;;1.67;0.50;;;18.60;99.90;;;;;;7407574;19;19922;-41
2022/11/24 00:44:13;;;;;;;2.03;0.70;;;18.60;99.90;;;;;;7408186;19;19926;-42
2022/11/24 00:46:42;;;;;;;1.15;0.43;;;18.60;99.90;;;;;;7405131;19;20254;-41
2022/11/24 00:49:13;;;;;;;2.97;0.73;;;18.60;99.90;;;;;;7405508;19;19923;-42
2022/11/24 00:51:42;;;;;;;2.50;0.75;;;18.60;99.90;;;;;;7409456;19;19921;-42
2022/11/24 00:54:11;;;;;;;2.65;0.90;;;18.60;99.90;;;;;;7405374;19;19915;-41
2022/11/24 00:56:40;;;;;;;2.28;0.60;;;18.60;99.90;;;;;;7402915;19;19922;-44
2022/11/24 00:59:09;;;;;;;1.90;0.70;;;18.60;99.90;;;;;;7404739;19;19927;-43
2022/11/24 01:01:38;;;;;;;1.23;0.70;;;18.60;99.90;;;;;;7407269;19;19938;-42
2022/11/24 01:04:07;;;;;;;1.80;0.77;;;18.60;99.90;;;;;;7405098;19;19919;-41
2022/11/24 01:06:38;;;;;;;1.80;0.70;;;18.60;99.90;;;;;;7403775;19;19925;-42
2022/11/24 01:09:07;;;;;;;1.55;0.70;;;18.60;99.90;;;;;;7401187;19;19925;-42
2022/11/24 01:14:19;;;;;;;2.25;0.52;;;18.60;99.90;;;;;;7405467;19;19927;-42
2022/11/24 01:16:48;;;;;;;2.70;0.80;;;18.60;99.90;;;;;;7406317;19;19922;-43
2022/11/24 01:19:17;;;;;;;1.42;0.43;;;18.50;99.90;;;;;;7404884;19;20341;-43
2022/11/24 01:21:49;;;;;;;1.85;0.40;;;18.50;99.90;;;;;;7405138;19;20340;-42
2022/11/24 01:24:18;;;;;;;1.55;0.60;;;18.50;99.90;;;;;;7405233;19;20273;-42
2022/11/24 01:26:47;;;;;;;1.90;0.57;;;18.50;99.90;;;;;;7407025;19;19918;-42
2022/11/24 01:29:16;;;;;;;1.75;0.32;;;18.50;99.90;;;;;;7404124;19;20360;-40
2022/11/24 01:31:45;;;;;;;1.65;0.90;;;18.50;99.90;;;;;;7404714;19;19918;-44
2022/11/24 01:34:14;;;;;;;1.00;0.22;;;18.50;99.90;;;;;;7406675;19;19929;-42
2022/11/24 01:36:43;;;;;;;1.27;0.32;;;18.50;99.90;;;;;;7402099;19;20283;-42
2022/11/24 01:39:15;;;;;;;;;;;18.40;99.90;;;;;;7409881;19;20341;-42
2022/11/24 01:41:44;;;;;;;3.33;0.90;;;18.40;99.90;;;;;;7402836;19;19915;-42
2022/11/24 01:44:26;;;;;;;1.92;0.35;;;18.40;99.90;;;;;;7404938;19;19923;-41
2022/11/24 01:46:58;;;;;;;1.92;1.08;;;18.40;99.90;;;;;;7406484;19;19938;-42
2022/11/24 01:49:30;;;;;;;1.77;0.52;;;18.40;99.90;;;;;;7405550;19;20337;-42
2022/11/24 01:52:02;;;;;;;2.22;0.70;;;18.40;99.90;;;;;;7405190;19;19951;-42
2022/11/24 01:54:37;;;;;;;2.25;0.55;;;18.40;99.90;;;;;;7404070;19;19919;-42
2022/11/24 01:57:11;;;;;;;1.67;0.73;;;18.40;99.90;;;;;;7405397;19;19930;-41
2022/11/24 01:59:40;;;;;;;2.28;0.45;;;18.30;99.90;;;;;;7403522;19;19961;-43
2022/11/24 02:02:10;;;;;;;2.03;0.68;;;18.30;99.90;;;;;;7405238;19;20371;-42
2022/11/24 02:04:40;;;;;;;3.45;0.70;;;18.30;99.90;;;;;;7405431;19;19926;-42
2022/11/24 02:07:10;;;;;;;1.95;0.35;;;18.30;99.90;;;;;;7402219;19;20284;-42
2022/11/24 02:09:47;;;;;;;2.75;0.80;;;18.30;99.90;;;;;;7402094;19;19929;-42
2022/11/24 02:12:16;;;;;;;2.42;0.70;;;18.30;99.90;;;;;;7403015;19;19926;-42
2022/11/24 02:14:46;;;;;;;2.05;0.63;;;18.20;99.90;;;;;;7403597;19;19919;-42
2022/11/24 02:17:15;;;;;;;1.92;0.70;;;18.20;99.90;;;;;;7405802;19;20371;-42
2022/11/24 02:19:55;;;;;;;2.35;1.70;;;18.20;99.90;;;;;;7402672;19;19922;-42
2022/11/24 02:22:33;;;;;;;1.40;0.85;;;18.20;99.90;;;;;;7404797;19;19930;-41
2022/11/24 02:25:14;;;;;;;2.00;0.70;;;18.20;99.90;;;;;;7403370;19;19914;-42
2022/11/24 02:27:47;;;;;;;2.55;0.32;;;18.20;99.90;;;;;;7402536;19;20265;-42
2022/11/24 02:30:16;;;;;;;1.65;0.80;;;18.20;99.90;;;;;;7403239;19;20325;-39
2022/11/24 02:32:45;;;;;;;2.25;0.32;;;18.20;99.90;;;;;;7404866;19;19921;-41
2022/11/24 02:35:14;;;;;;;1.73;0.70;;;18.20;99.90;;;;;;7402360;19;19919;-41
2022/11/24 02:37:43;;;;;;;1.67;0.50;;;18.10;99.90;;;;;;7404102;19;19922;-41
2022/11/24 02:40:17;;;;;;;1.65;0.50;;;18.10;99.90;;;;;;7401967;19;19915;-40
2022/11/24 02:42:49;;;;;;;1.58;0.95;;;18.10;99.90;;;;;;7404251;19;19918;-42
2022/11/24 02:45:18;;;;;;;2.20;0.65;;;18.10;99.90;;;;;;7404345;19;19919;-41
2022/11/24 02:47:47;;;;;;;1.25;0.17;;;18.10;99.90;;;;;;7401629;19;20256;-43
2022/11/24 02:50:16;;;;;;;2.28;0.52;;;18.10;99.90;;;;;;7402240;19;19923;-41
2022/11/24 02:52:45;;;;;;;2.08;0.80;;;18.00;99.90;;;;;;7402277;19;19915;-41
2022/11/24 02:55:14;;;;;;;1.23;0.47;;;18.10;99.90;;;;;;7402315;19;20310;-41
2022/11/24 02:57:43;;;;;;;1.63;0.65;;;18.10;99.90;;;;;;7401184;19;19919;-42
2022/11/24 03:00:16;;;;;;;1.75;0.50;;;18.10;99.90;;;;;;7405488;19;19919;-42
2022/11/24 03:02:45;;;;;;;1.67;0.63;;;18.00;99.90;;;;;;7401559;19;19947;-41
2022/11/24 03:05:14;;;;;;;2.28;0.60;;;18.00;99.90;;;;;;7401514;19;19922;-41
2022/11/24 03:07:43;;;;;;;2.83;0.80;;;18.00;99.90;;;;;;7399412;19;19921;-41
2022/11/24 03:10:12;;;;;;;1.73;0.38;;;18.00;99.90;;;;;;7401593;19;19926;-42
2022/11/24 03:12:41;;;;;;;2.17;1.00;;;18.00;99.90;;;;;;7400272;19;19915;-43
2022/11/24 03:15:10;;;;;;;1.83;0.50;;;18.00;99.90;;;;;;7402580;19;19978;-42
2022/11/24 03:17:42;;;;;;;1.95;0.55;;;18.00;99.90;;;;;;7401906;19;20269;-42
2022/11/24 03:20:12;;;;;;;1.60;0.50;;;18.00;99.90;;;;;;7401036;19;19971;-42
2022/11/24 03:22:41;;;;;;;2.28;0.70;;;18.00;99.90;;;;;;7403582;19;19929;-42
2022/11/24 03:25:11;;;;;;;1.65;0.77;;;18.00;99.90;;;;;;7402114;19;20004;-43
2022/11/24 03:27:40;;;;;;;2.22;0.70;;;17.90;99.90;;;;;;7401130;19;19925;-42
2022/11/24 03:30:10;;;;;;;1.60;0.80;;;17.90;99.90;;;;;;7403284;19;19930;-42
2022/11/24 03:32:43;;;;;;;1.40;0.25;;;17.90;99.90;;;;;;7409575;19;19943;-42
2022/11/24 03:35:11;;;;;;;2.60;0.88;;;17.90;99.90;;;;;;7409731;19;19923;-42
2022/11/24 03:37:40;;;;;;;2.53;0.82;;;17.90;99.90;;;;;;7408445;19;19914;-42
2022/11/24 03:40:10;;;;;;;2.47;0.77;;;17.90;99.90;;;;;;7408657;19;19938;-42
2022/11/24 03:42:41;;;;;;;1.90;0.73;;;17.90;99.90;;;;;;7411608;19;19939;-42
2022/11/24 03:45:10;;;;;;;;;;;17.90;99.90;;;;;;7411573;19;19918;-43
2022/11/24 03:47:41;;;;;;;1.50;0.30;;;17.90;99.90;;;;;;7407288;19;19925;-42
2022/11/24 03:50:11;;;;;;;1.40;0.43;;;17.80;99.90;;;;;;7407387;19;19918;-42
2022/11/24 03:52:40;;;;;;;2.70;0.40;;;17.80;99.90;;;;;;7406913;19;19986;-42
2022/11/24 03:55:09;;;;;;;1.50;0.60;;;17.80;99.90;;;;;;7410072;19;19914;-42
2022/11/24 03:57:38;;;;;;;1.40;0.77;;;17.80;99.90;;;;;;7405687;19;19915;-42
2022/11/24 04:00:08;;;;;;;3.13;0.75;;;17.80;99.90;;;;;;7406889;19;19925;-42
2022/11/24 04:02:37;;;;;;;1.90;0.75;;;17.90;99.90;;;;;;7406588;19;19915;-42
2022/11/24 04:05:10;;;;;;;2.83;0.85;;;17.80;99.90;;;;;;7406468;19;19978;-42
2022/11/24 04:07:38;;;;;;;2.08;0.88;;;17.80;99.90;;;;;;7406566;19;19918;-42
2022/11/24 04:10:09;;;;;;;2.22;0.32;;;17.80;99.90;;;;;;7406827;19;20265;-41
2022/11/24 04:12:44;;;;;;;2.58;0.90;;;17.80;99.90;;;;;;7406603;19;19999;-42
2022/11/24 04:15:14;;;;;;;2.60;0.98;;;17.80;99.90;;;;;;7406105;19;20316;-42
2022/11/24 04:17:43;;;;;;;2.25;0.80;;;17.80;99.90;;;;;;7407863;19;20341;-41
2022/11/24 04:20:15;;;;;;;2.38;0.70;;;17.80;99.90;;;;;;7406169;19;20407;-42
2022/11/24 04:22:45;;;;;;;1.35;0.30;;;17.80;99.90;;;;;;7405962;19;19926;-42
2022/11/24 04:25:16;;;;;;;1.40;0.60;;;17.80;99.90;;;;;;7408843;19;20368;-42
2022/11/24 04:27:45;;;;;;;1.63;0.45;;;17.80;99.90;;;;;;7405623;19;20274;-42
2022/11/24 04:30:14;;;;;;;2.80;0.70;;;17.80;99.90;;;;;;7408754;19;19918;-41
2022/11/24 04:32:43;;;;;;;2.15;0.57;;;17.80;99.90;;;;;;7408900;19;19929;-43
2022/11/24 04:35:15;;;;;;;3.47;0.88;;;17.80;99.90;;;;;;7405641;19;19919;-40
2022/11/24 04:37:44;;;;;;;2.08;0.70;;;17.70;99.90;;;;;;7407962;19;19925;-43
2022/11/24 04:40:14;;;;;;;2.03;0.65;;;17.80;99.90;;;;;;7405702;19;19923;-43
2022/11/24 04:42:44;;;;;;;2.45;0.52;;;17.70;99.90;;;;;;7409178;19;20258;-43
2022/11/24 04:45:13;;;;;;;2.72;0.82;;;17.70;99.90;;;;;;7405548;19;19942;-42
2022/11/24 04:47:42;;;;;;;2.50;0.90;;;17.70;99.90;;;;;;7406275;19;20325;-42
2022/11/24 04:50:11;;;;;;;2.17;0.73;;;17.70;99.90;;;;;;7405245;19;19917;-41
2022/11/24 04:52:43;;;;;;;1.65;0.68;;;17.70;99.90;;;;;;7405071;19;19918;-42
2022/11/24 04:55:12;;;;;;;2.97;0.65;;;17.70;99.90;;;;;;7405257;19;19918;-42
2022/11/24 04:57:41;;;;;;;3.08;0.90;;;17.70;99.90;;;;;;7404325;19;20348;-41
2022/11/24 05:00:11;;;;;;;1.48;0.47;;;17.70;99.90;;;;;;7406697;19;19914;-42
2022/11/24 05:02:40;;;;;;;2.80;0.60;;;17.70;99.90;;;;;;7403633;19;19910;-43
2022/11/24 05:05:10;;;;;;;1.77;0.85;;;17.70;99.90;;;;;;7404540;19;20343;-43
2022/11/24 05:07:39;;;;;;;1.73;0.85;;;17.70;99.90;;;;;;7403271;19;19978;-43
2022/11/24 05:12:58;;;;;;;2.63;0.93;;;17.70;99.90;;;;;;7404691;19;19910;-42
2022/11/24 05:15:27;;;;;;;3.50;0.93;;;17.70;99.90;;;;;;7405159;19;20341;-42
2022/11/24 05:17:56;;;;;;;3.97;1.17;;;17.70;99.90;;;;;;7403975;19;19919;-42
2022/11/24 05:20:25;;;;;;;2.50;0.75;;;17.70;99.90;;;;;;7404555;19;19919;-40
2022/11/24 05:22:54;;;;;;;2.47;0.65;;;17.60;99.90;;;;;;7404739;19;19915;-43
2022/11/24 05:25:26;;;;;;;2.42;0.90;;;17.60;99.90;;;;;;7404458;19;19970;-42
2022/11/24 05:27:55;;;;;;;2.00;0.73;;;17.70;99.90;;;;;;7404452;19;19931;-41
2022/11/24 05:30:23;;;;;;;2.53;0.63;;;17.60;99.90;;;;;;7403862;19;19977;-42
2022/11/24 05:32:52;;;;;;;2.38;0.98;;;17.60;99.90;;;;;;7406082;19;19918;-42
2022/11/24 05:35:21;;;;;;;2.53;0.88;;;17.60;99.90;;;;;;7404093;19;19914;-43
2022/11/24 05:37:50;;;;;;;1.92;0.50;;;17.60;99.90;;;;;;7405836;19;19929;-41
2022/11/24 05:40:19;;;;;;;2.28;0.60;;;17.60;99.90;;;;;;7403895;19;19926;-40
2022/11/24 05:42:51;;;;;;;;;;;17.60;99.90;;;;;;7405739;19;19922;-42
2022/11/24 05:45:22;;;;;;;1.65;0.60;;;17.60;99.90;;;;;;7404776;19;19919;-42
2022/11/24 05:47:52;;;;;;;1.77;0.60;;;17.60;99.90;;;;;;7406831;19;19929;-43
2022/11/24 05:50:22;;;;;;;2.67;1.38;;;17.60;99.90;;;;;;7403487;19;19910;-42
2022/11/24 05:52:52;;;;;;;1.55;0.65;;;17.60;99.90;;;;;;7405489;19;19926;-42
2022/11/24 05:55:21;;;;;;;2.45;0.88;;;17.60;99.90;;;;;;7402886;19;19919;-42
2022/11/24 05:58:00;;;;;;;2.70;0.70;;;17.50;99.90;;;;;;7403234;19;19924;-42
2022/11/24 06:00:30;;;;;;;1.70;0.73;;;17.50;99.90;;;;;;7402934;19;19919;-42
2022/11/24 06:02:59;;;;;;;2.35;0.90;;;17.50;99.90;;;;;;7404793;19;20014;-41
2022/11/24 06:05:29;;;;;;;;;;;17.50;99.90;;;;;;7407511;19;19937;-42
2022/11/24 06:07:58;;;;;;;2.35;0.52;;;17.50;99.90;;;;;;7402448;19;19918;-42
2022/11/24 06:10:27;;;;;;;1.92;0.57;;;17.50;99.90;;;;;;7404412;19;20025;-42
2022/11/24 06:12:58;;;;;;;2.63;0.65;;;17.50;99.90;;;;;;7404462;19;19933;-41
2022/11/24 06:15:27;;;;;;;2.22;0.95;;;17.50;99.90;;;;;;7403038;19;19954;-42
2022/11/24 06:17:57;;;;;;;1.33;0.52;;;17.50;99.90;;;;;;7402736;19;19922;-40
2022/11/24 06:20:26;;;;;;;1.95;0.28;;;17.50;99.90;;;;;;7402247;19;20351;-43
2022/11/24 06:22:55;;;;;;;1.98;0.60;;;17.50;99.90;;;;;;7405351;19;19994;-41
2022/11/24 06:25:25;;;;;;;1.88;0.65;;;17.50;99.90;;;;;;7402040;19;19943;-42
2022/11/24 06:27:54;;;;;;;2.28;0.77;;;17.50;99.90;;;;;;7405228;19;19922;-42
2022/11/24 06:30:25;;;;;;;1.83;0.70;;;17.50;99.90;;;;;;7401587;19;20337;-43
2022/11/24 06:32:56;;;;;;;1.75;0.70;;;17.50;99.90;;;;;;7404699;19;19929;-42
2022/11/24 06:35:25;;;;;;;2.38;0.80;;;17.40;99.90;;;;;;7402424;19;19931;-42
2022/11/24 06:37:54;;;;;;;3.70;0.45;;;17.40;99.90;;;;;;7402208;19;20349;-42
2022/11/24 06:40:23;;;;;;;2.45;0.73;;;17.50;99.90;;;;;;7403414;19;19922;-44
2022/11/24 06:42:53;;;;;;;1.98;0.70;;;17.40;99.90;;;;;;7402048;19;19911;-42
2022/11/24 06:45:25;;;;;;;1.35;0.57;;;17.40;99.90;;;;;;7399924;19;19960;-42
2022/11/24 06:47:55;;;;;;;1.75;0.63;;;17.40;99.90;;;;;;7401311;19;19930;-42
2022/11/24 06:50:25;;;;;;;1.80;0.90;;;17.50;99.90;;;;;;7405224;19;19931;-42
2022/11/24 06:52:56;;;;;;;3.67;1.15;;;17.40;99.90;;;;;;7402674;19;19923;-42
2022/11/24 06:55:25;;;;;;;2.50;0.30;;;17.40;99.90;;;;;;7401686;19;19918;-42
2022/11/24 06:57:54;;;;;;;2.10;0.57;;;17.40;99.90;;;;;;7399873;19;19918;-43
2022/11/24 07:00:28;;;;;;;1.67;0.68;;;17.40;99.90;;;;;;7395812;19;19921;-41
2022/11/24 07:03:06;;;;;;;3.63;0.75;;;17.40;99.90;;;;;;7401395;19;19934;-43
2022/11/24 07:05:34;;;;;;;1.73;1.05;;;17.40;99.90;;;;;;7403870;19;19923;-43
2022/11/24 07:08:04;;;;;;;1.75;0.77;;;17.50;99.90;;;;;;7411341;19;19918;-41
2022/11/24 07:10:32;;;;;;;2.17;0.35;;;17.50;99.90;;;;;;7408431;19;19923;-41
2022/11/24 07:13:02;;;;;;;4.95;1.25;;;17.50;99.90;;;;;;7386533;19;19990;-43
2022/11/24 07:15:54;;;;;;;2.75;0.73;;;17.50;99.90;;;;;;7409444;19;19928;-43
2022/11/24 07:18:22;;;;;;;2.10;0.60;;;17.50;99.90;;;;;;7404469;19;19925;-44
2022/11/24 07:20:51;;;;;;;3.88;0.63;;;17.50;99.90;;;;;;7407075;19;19935;-42
2022/11/24 07:23:20;;;;;;;2.88;0.88;;;17.50;99.90;;;;;;7406787;19;19919;-43
2022/11/24 07:25:49;;;;;;;3.88;1.05;;;17.50;99.90;;;;;;7407973;19;19915;-42
2022/11/24 07:28:18;;;;;;;2.05;0.50;;;17.50;99.90;;;;;;7407214;19;19917;-41
2022/11/24 07:30:47;;;;;;;3.30;0.60;;;17.50;99.90;;;;;;7406934;19;19922;-43
2022/11/24 07:33:23;;;;;;;2.35;0.30;;;17.50;99.90;;;;;;7406174;19;20348;-42
2022/11/24 07:35:52;;;;;;;1.83;0.75;;;17.50;99.90;;;;;;7405399;19;19926;-43
2022/11/24 07:38:22;;;;;;;2.15;0.68;;;17.40;99.90;;;;;;7404098;19;19970;-41
2022/11/24 07:40:50;;;;;;;2.10;0.25;;;17.40;99.90;;;;;;7408600;19;19915;-41
2022/11/24 07:43:20;;;;;;;;;;;17.40;99.90;;;;;;7412059;19;20371;-42
2022/11/24 07:45:54;;;;;;;1.83;0.52;;;17.40;99.90;;;;;;7406950;19;19926;-42
2022/11/24 07:48:25;;;;;;;2.05;0.65;;;17.40;99.90;;;;;;7406234;19;19915;-42
2022/11/24 07:50:54;;;;;;;2.22;0.82;;;17.40;99.90;;;;;;7409777;19;20384;-43
2022/11/24 07:53:23;;;;;;;2.58;0.80;;;17.40;99.90;;;;;;7411072;19;19926;-42
2022/11/24 07:55:56;;;;;;;1.42;0.75;;;17.40;99.90;;;;;;7406485;19;19926;-42
2022/11/24 07:58:26;;;;;;;2.25;0.65;;;17.40;99.90;;;;;;7405488;19;19947;-42
2022/11/24 08:00:54;;;;;;;3.13;0.65;;;17.40;99.90;;;;;;7406190;19;19922;-41
2022/11/24 08:03:26;;;;;;;2.35;0.60;;;17.40;99.90;;;;;;7406541;19;20401;-42
2022/11/24 08:05:56;;;;;;;1.27;0.52;;;17.40;99.90;;;;;;7403846;19;19917;-42
2022/11/24 08:08:25;;;;;;;2.33;0.93;;;17.40;99.90;;;;;;7406012;19;19922;-41
2022/11/24 08:10:54;;;;;;;2.28;0.77;;;17.40;99.90;;;;;;7405261;19;19924;-40
2022/11/24 08:13:23;;;;;;;1.90;1.35;;;17.40;99.90;;;;;;7406389;19;19921;-41
2022/11/24 08:15:52;;;;;;;2.55;0.65;;;17.40;99.90;;;;;;7408588;19;20401;-42
2022/11/24 08:18:23;;;;;;;2.88;1.67;;;17.40;99.90;;;;;;7404898;19;19922;-43
2022/11/24 08:20:54;;;;;;;2.35;0.52;;;17.40;99.90;;;;;;7402720;19;19929;-44
2022/11/24 08:23:23;;;;;;;2.00;0.40;;;17.40;99.90;;;;;;7404532;19;19918;-42
2022/11/24 08:25:53;;;;;;;2.60;0.40;;;17.40;99.90;;;;;;7410378;19;20345;-41
2022/11/24 08:28:22;;;;;;;1.98;0.15;;;17.40;99.90;;;;;;7405726;19;19910;-42
2022/11/24 08:30:51;;;;;;;3.38;0.70;;;17.40;99.90;;;;;;7405538;19;20501;-41
2022/11/24 08:33:20;;;;;;;2.17;0.70;;;17.40;99.90;;;;;;7405408;19;19926;-42
2022/11/24 08:35:49;;;;;;;2.22;0.50;;;17.40;99.90;;;;;;7406169;19;19930;-43
2022/11/24 08:38:20;;;;;;;2.50;0.57;;;17.40;99.90;;;;;;7405441;19;19914;-42
2022/11/24 08:40:49;;;;;;;2.53;0.25;;;17.40;99.90;;;;;;7403444;19;19914;-42
2022/11/24 08:43:18;;;;;;;1.60;0.65;;;17.40;99.90;;;;;;7406016;19;19926;-41
2022/11/24 08:45:48;;;;;;;2.75;0.75;;;17.40;99.90;;;;;;7406064;19;20336;-41
2022/11/24 08:48:17;;;;;;;2.28;0.73;;;17.40;99.90;;;;;;7405285;19;19986;-42
2022/11/24 08:50:45;;;;;;;2.00;0.20;;;17.40;99.90;;;;;;7405278;19;19929;-41
2022/11/24 08:53:14;;;;;;;1.80;0.60;;;17.40;99.90;;;;;;7402638;19;19982;-42
2022/11/24 08:55:46;;;;;;;1.73;0.65;;;17.40;99.90;;;;;;7404840;19;19918;-42
2022/11/24 08:58:15;;;;;;;3.28;0.65;;;17.50;99.90;;;;;;7405414;19;19922;-41
2022/11/24 09:00:44;;;;;;;1.17;0.50;;;17.40;99.90;;;;;;7403348;19;19915;-43
2022/11/24 09:03:14;;;;;;;2.38;1.02;;;17.40;99.90;;;;;;7404911;19;19937;-41
2022/11/24 09:05:43;;;;;;;1.88;0.60;;;17.50;99.90;;;;;;7403845;19;19922;-42
2022/11/24 09:08:12;;;;;;;1.95;0.50;;;17.50;99.90;;;;;;7404936;19;19914;-41
2022/11/24 09:10:41;;;;;;;1.45;0.55;;;17.50;99.90;;;;;;7404307;19;19970;-42
2022/11/24 09:13:13;;;;;;;;;;;17.50;99.90;;;;;;7406918;19;19911;-42
2022/11/24 09:15:42;;;;;;;1.63;0.60;;;17.50;99.90;;;;;;7405335;19;19911;-41
2022/11/24 09:18:10;;;;;;;2.65;0.85;;;17.50;99.90;;;;;;7404767;19;19915;-42
2022/11/24 09:20:39;;;;;;;1.95;0.30;;;17.50;99.90;;;;;;7403274;19;20314;-42
2022/11/24 09:23:08;;;;;;;2.95;0.88;;;17.50;99.90;;;;;;7406746;19;19918;-40
2022/11/24 09:25:37;;;;;;;3.15;0.85;;;17.50;99.90;;;;;;7403727;19;19918;-41
2022/11/24 09:28:09;;;;;;;3.42;0.70;;;17.60;99.90;;;;;;7403319;19;19915;-42
2022/11/24 09:30:40;;;;;;;2.35;1.23;;;17.60;99.90;;;;;;7404083;19;19910;-41
2022/11/24 09:33:09;;;;;;;1.20;0.22;;;17.60;99.90;;;;;;7404165;19;19918;-43
2022/11/24 09:35:39;;;;;;;1.70;0.50;;;17.60;99.90;;;;;;7403808;19;19918;-42
2022/11/24 09:38:09;;;;;;;;;;;17.60;99.90;;;;;;7406669;19;20337;-41
2022/11/24 09:40:38;;;;;;;1.77;1.00;;;17.60;99.90;;;;;;7402667;19;20479;-41
2022/11/24 09:43:14;;;;;;;2.28;0.30;;;17.70;99.90;;;;;;7403905;19;19936;-42
2022/11/24 09:45:57;;;;;;;2.15;0.40;;;17.70;99.90;;;;;;7404508;19;19939;-41
2022/11/24 09:48:32;;;;;;;2.38;0.60;;;17.70;99.90;;;;;;7404050;19;19919;-42
2022/11/24 09:51:05;;;;;;;1.55;0.60;;;17.70;99.90;;;;;;7403884;19;19925;-43
2022/11/24 09:53:38;;;;;;;2.60;0.80;;;17.70;99.90;;;;;;7403666;19;19939;-41
2022/11/24 09:56:20;;;;;;;1.58;0.20;;;17.70;99.90;;;;;;7403994;19;20264;-40
2022/11/24 09:58:52;;;;;;;2.75;0.43;;;17.80;99.90;;;;;;7403217;19;19918;-42
2022/11/24 10:01:30;;;;;;;2.55;0.70;;;17.80;99.90;;;;;;7402044;19;19943;-44
2022/11/24 10:03:59;;;;;;;1.77;0.60;;;17.80;99.90;;;;;;7403139;19;20336;-40
2022/11/24 10:06:30;;;;;;;2.25;0.70;;;17.80;99.90;;;;;;7403381;19;20341;-42
2022/11/24 10:09:16;;;;;;;3.58;0.85;;;17.80;99.90;;;;;;7403102;19;19919;-43
2022/11/24 10:11:55;;;;;;;2.53;0.88;;;17.80;99.90;;;;;;7401704;19;19919;-42
2022/11/24 10:14:54;;;;;;;1.48;0.20;;;17.80;99.90;;;;;;7402908;19;20328;-41
2022/11/24 10:17:37;;;;;;;1.85;0.63;;;17.90;99.90;;;;;;7403231;19;19948;-42
2022/11/24 10:20:12;;;;;;;4.50;0.70;;;17.90;99.90;;;;;;7402354;19;19923;-41
2022/11/24 10:22:53;;;;;;;1.42;0.57;;;17.90;99.90;;;;;;7406711;19;19914;-42
2022/11/24 10:25:27;;;;;;;1.92;0.52;;;17.90;99.90;;;;;;7403606;19;19922;-41
2022/11/24 10:28:00;;;;;;;1.92;0.82;;;17.90;99.90;;;;;;7402371;19;19978;-42
2022/11/24 10:30:30;;;;;;;2.40;0.85;;;18.00;99.90;;;;;;7402320;19;19926;-43
2022/11/24 10:33:05;;;;;;;2.45;0.80;;;18.00;99.90;;;;;;7402338;19;19937;-42
2022/11/24 10:35:44;;;;;;;1.30;0.20;;;18.00;99.90;;;;;;7402094;19;19917;-42
2022/11/24 10:38:25;;;;;;;3.08;1.10;;;18.10;99.90;;;;;;7402349;19;20649;-41
2022/11/24 10:40:59;;;;;;;3.85;0.70;;;18.10;99.90;;;;;;7404910;19;19922;-42
2022/11/24 10:43:29;;;;;;;1.88;0.30;;;18.10;99.90;;;;;;7409254;19;20382;-42
2022/11/24 10:46:09;;;;;;;2.13;0.82;;;18.10;99.90;;;;;;7408597;19;19954;-40
2022/11/24 10:48:47;;;;;;;2.22;0.70;;;18.20;99.90;;;;;;7408174;19;19919;-43
2022/11/24 10:51:48;;;;;;;2.75;0.93;;;18.20;99.90;;;;;;7408230;19;19925;-39
2022/11/24 10:54:19;;;;;;;2.33;0.80;;;18.30;99.90;;;;;;7408980;19;19911;-38
2022/11/24 10:56:51;;;;;;;2.38;0.73;;;18.40;99.90;;;;;;7408119;19;19914;-38
2022/11/24 10:59:30;;;;;;;2.67;0.75;;;18.40;99.90;;;;;;7410106;19;19926;-38
2022/11/24 11:02:00;;;;;;;1.98;0.80;;;18.50;99.90;;;;;;7410488;19;19975;-41
2022/11/24 11:04:33;;;;;;;2.85;0.43;;;18.60;99.90;;;;;;7409566;19;20365;-38
2022/11/24 11:07:18;;;;;;;2.55;0.70;;;18.70;99.90;;;;;;7408322;19;19922;-41
2022/11/24 11:09:47;;;;;;;2.20;0.60;;;18.70;99.90;;;;;;7406644;19;20289;-40
2022/11/24 11:12:23;;;;;;;2.45;0.80;;;18.80;99.90;;;;;;7406370;19;19919;-40
2022/11/24 11:14:52;;;;;;;2.17;0.52;;;18.90;99.90;;;;;;7407845;19;19918;-40
2022/11/24 11:17:36;;;;;;;1.75;0.60;;;19.00;99.90;;;;;;7409109;19;20345;-40
2022/11/24 11:20:19;;;;;;;1.13;0.70;;;19.10;99.90;;;;;;7406706;19;20369;-41
2022/11/24 11:22:51;;;;;;;1.92;0.70;;;19.10;99.90;;;;;;7407633;19;19985;-39
2022/11/24 11:25:23;;;;;;;2.75;1.00;;;19.20;99.90;;;;;;7410394;19;19915;-40
2022/11/24 11:27:52;;;;;;;2.30;0.63;;;19.30;99.90;;;;;;7406830;19;19914;-42
2022/11/24 11:30:26;;;;;;;2.05;0.20;;;19.30;99.90;;;;;;7407098;19;19942;-41
2022/11/24 11:32:57;;;;;;;2.65;0.90;;;19.80;99.90;;;;;;7406802;19;20350;-40
2022/11/24 11:35:35;;;;;;;1.50;0.20;;;20.00;99.90;;;;;;7409558;19;20618;-39
2022/11/24 11:38:06;;;;;;;2.55;0.60;;;19.90;99.90;;;;;;7407736;19;19939;-42
2022/11/24 11:40:36;;;;;;;1.83;0.80;;;19.90;99.90;;;;;;7406680;19;20290;-40
2022/11/24 11:43:09;;;;;;;2.25;0.75;;;19.90;99.90;;;;;;7409214;19;19950;-40
2022/11/24 11:45:41;;;;;;;1.92;0.63;;;19.90;99.90;;;;;;7407023;19;19914;-40
2022/11/24 11:48:28;;;;;;;1.73;0.75;;;19.90;99.90;;;;;;7406594;19;19938;-40
2022/11/24 11:51:07;;;;;;;2.15;0.65;;;20.00;99.90;;;;;;7406833;19;19936;-42
2022/11/24 11:53:45;;;;;;;2.63;0.30;;;20.10;99.90;;;;;;7409119;19;19922;-44
2022/11/24 11:56:25;;;;;;;3.42;0.65;;;20.10;99.90;;;;;;7406190;19;19926;-42
2022/11/24 11:59:06;;;;;;;1.67;0.60;;;20.20;99.90;;;;;;7405479;19;19926;-43
2022/11/24 12:01:56;;;;;;;1.50;0.40;;;20.30;99.90;;;;;;7408837;19;19918;-43
2022/11/24 12:04:39;;;;;;;3.60;0.82;;;20.30;99.90;;;;;;7408731;19;19943;-45
2022/11/24 12:07:35;;;;;;;2.22;0.70;;;20.40;99.90;;;;;;7407012;19;19929;-42
2022/11/24 12:10:16;;;;;;;1.60;0.70;;;20.50;99.90;;;;;;7408124;19;19930;-42
2022/11/24 12:13:16;;;;;;;2.47;0.75;;;20.50;99.90;;;;;;7407131;19;19918;-45
2022/11/24 12:15:49;;;;;;;2.35;0.63;;;20.50;99.90;;;;;;7405595;19;19961;-42
2022/11/24 12:18:34;;;;;;;2.00;0.90;;;20.50;99.90;;;;;;7406834;19;19922;-44
2022/11/24 12:21:12;;;;;;;2.92;0.43;;;20.50;99.90;;;;;;7407818;19;19921;-43
2022/11/24 12:23:57;;;;;;;2.00;0.32;;;20.50;99.90;;;;;;7407240;19;19923;-43
2022/11/24 12:26:36;;;;;;;2.22;0.80;;;20.50;99.90;;;;;;7404462;19;20000;-44
2022/11/24 12:29:30;;;;;;;1.90;0.50;;;20.50;99.90;;;;;;7406208;19;19918;-42
2022/11/24 12:32:06;;;;;;;2.10;0.88;;;20.50;99.90;;;;;;7409099;19;19922;-41
2022/11/24 12:34:45;;;;;;;1.10;0.32;;;20.50;99.90;;;;;;7408809;19;19922;-43
2022/11/24 12:37:40;;;;;;;2.28;0.60;;;20.50;99.90;;;;;;7403941;19;19929;-41
2022/11/24 12:40:19;;;;;;;1.50;1.00;;;20.50;99.90;;;;;;7409165;19;19924;-41
2022/11/24 12:42:55;;;;;;;2.15;0.60;;;20.50;99.90;;;;;;7408172;19;20344;-42
2022/11/24 12:45:33;;;;;;;2.25;1.00;;;20.50;99.90;;;;;;7407171;19;19926;-43
2022/11/24 12:48:31;;;;;;;1.30;0.57;;;20.50;99.90;;;;;;7407538;19;19986;-42
2022/11/24 12:51:01;;;;;;;1.90;0.80;;;20.50;99.90;;;;;;7406659;19;19954;-41
2022/11/24 12:53:34;;;;;;;1.85;0.93;;;20.40;99.90;;;;;;7405385;19;19934;-47
2022/11/24 12:56:12;;;;;;;2.85;0.85;;;20.40;99.90;;;;;;7408459;19;19926;-42
2022/11/24 12:58:49;;;;;;;2.92;0.85;;;20.40;99.90;;;;;;7407644;19;19921;-41
2022/11/24 13:01:29;;;;;;;1.52;0.32;;;20.40;99.90;;;;;;7405179;19;19919;-41
2022/11/24 13:04:12;;;;;;;1.42;0.63;;;20.40;99.90;;;;;;7404158;19;19970;-43
2022/11/24 13:06:50;;;;;;;3.05;0.52;;;20.30;99.90;;;;;;7404732;19;19919;-43
2022/11/24 13:09:19;;;;;;;2.00;0.98;;;20.40;99.90;;;;;;7404372;19;20336;-42
2022/11/24 13:11:53;;;;;;;2.08;0.68;;;20.30;99.90;;;;;;7403366;19;19914;-43
2022/11/24 13:14:24;;;;;;;1.90;0.77;;;20.30;99.90;;;;;;7405020;19;19921;-42
2022/11/24 13:16:59;;;;;;;1.98;0.90;;;20.30;99.90;;;;;;7403586;19;19925;-43
2022/11/24 13:19:30;;;;;;;2.08;0.77;;;20.30;99.90;;;;;;7405264;19;19930;-41